createdAt,value
2022-12-19T00:03:34.056Z,5.00
2022-12-19T00:09:02.982Z,4.90
2022-12-19T00:14:28.044Z,5.00
2022-12-19T00:19:53.006Z,4.60
2022-12-19T00:25:20.984Z,4.72
2022-12-19T00:30:46.952Z,4.88
2022-12-19T00:36:08.982Z,4.82
2022-12-19T00:41:41.725Z,4.43
2022-12-19T00:46:59.968Z,5.07
2022-12-19T00:52:24.964Z,4.70
2022-12-19T00:57:51.987Z,5.03
2022-12-19T01:03:19.059Z,4.63
2022-12-19T01:08:43.962Z,4.60
2022-12-19T01:14:14.942Z,4.95
2022-12-19T01:19:44.565Z,4.90
2022-12-19T01:25:10.000Z,5.03
2022-12-19T01:30:36.990Z,5.18
2022-12-19T01:36:02.013Z,4.95
2022-12-19T01:41:26.992Z,5.22
2022-12-19T01:46:56.995Z,4.78
2022-12-19T01:52:24.052Z,4.63
2022-12-19T01:57:49.016Z,5.35
2022-12-19T02:03:22.048Z,4.35
2022-12-19T02:08:48.961Z,4.47
2022-12-19T02:14:13.970Z,4.43
2022-12-19T02:20:18.974Z,5.13
2022-12-19T02:26:16.036Z,5.15
2022-12-19T02:31:48.029Z,4.68
2022-12-19T02:37:17.980Z,4.30
2022-12-19T02:42:49.079Z,4.90
2022-12-19T02:48:19.480Z,5.00
2022-12-19T02:53:51.983Z,4.55
2022-12-19T02:59:32.045Z,4.60
2022-12-19T03:05:10.008Z,4.50
2022-12-19T03:10:44.038Z,4.50
2022-12-19T03:16:09.026Z,4.30
2022-12-19T03:21:44.171Z,4.28
2022-12-19T03:27:13.015Z,4.50
2022-12-19T03:32:41.022Z,4.32
2022-12-19T03:38:11.064Z,4.20
2022-12-19T03:43:38.049Z,4.05
2022-12-19T03:49:05.039Z,3.80
2022-12-19T03:54:43.066Z,4.43
2022-12-19T04:00:13.094Z,4.10
2022-12-19T04:05:40.059Z,4.20
2022-12-19T04:11:14.072Z,3.97
2022-12-19T04:16:45.048Z,4.07
2022-12-19T04:22:17.068Z,4.28
2022-12-19T04:27:47.102Z,4.00
2022-12-19T04:33:12.081Z,4.43
2022-12-19T04:38:36.104Z,4.18
2022-12-19T04:44:04.056Z,4.13
2022-12-19T04:49:28.079Z,4.20
2022-12-19T04:54:59.066Z,4.68
2022-12-19T05:00:27.071Z,4.63
2022-12-19T05:05:51.092Z,4.60
2022-12-19T05:11:19.860Z,4.75
2022-12-19T05:16:47.077Z,4.78
2022-12-19T05:22:12.113Z,4.80
2022-12-19T05:27:36.068Z,4.63
2022-12-19T05:33:04.087Z,4.68
2022-12-19T05:38:28.090Z,4.97
2022-12-19T05:43:53.072Z,4.70
2022-12-19T05:49:20.119Z,4.75
2022-12-19T05:54:51.097Z,4.60
2022-12-19T06:00:19.092Z,4.60
2022-12-19T06:05:46.132Z,4.70
2022-12-19T06:11:12.102Z,5.40
2022-12-19T06:16:38.225Z,4.90
2022-12-19T06:22:06.087Z,5.30
2022-12-19T06:27:30.107Z,5.60
2022-12-19T06:32:55.100Z,5.28
2022-12-19T06:38:22.114Z,5.32
2022-12-19T06:43:51.911Z,5.57
2022-12-19T06:49:17.108Z,6.25
2022-12-19T06:54:51.108Z,6.10
2022-12-19T07:00:18.111Z,6.60
2022-12-19T07:05:42.104Z,6.63
2022-12-19T07:11:10.140Z,6.13
2022-12-19T07:16:34.125Z,6.15
2022-12-19T07:21:59.113Z,6.43
2022-12-19T07:27:31.736Z,6.57
2022-12-19T07:33:00.126Z,6.53
2022-12-19T07:38:25.103Z,6.78
2022-12-19T07:43:54.252Z,6.63
2022-12-19T07:49:22.619Z,7.00
2022-12-19T07:54:55.782Z,7.15
2022-12-19T08:00:25.106Z,7.07
2022-12-19T08:05:50.117Z,7.00
2022-12-19T08:11:20.112Z,7.47
2022-12-19T08:17:18.694Z,7.35
2022-12-19T08:22:32.126Z,7.70
2022-12-19T08:27:57.127Z,7.70
2022-12-19T08:33:25.137Z,7.45
2022-12-19T08:38:49.139Z,8.25
2022-12-19T08:44:14.131Z,7.60
2022-12-19T08:49:41.152Z,7.20
2022-12-19T08:55:12.175Z,7.45
2022-12-19T09:00:37.141Z,7.57
2022-12-19T09:06:17.806Z,7.85
2022-12-19T09:11:47.815Z,7.97
2022-12-19T09:17:14.196Z,7.97
2022-12-19T09:22:42.135Z,7.72
2022-12-19T09:33:51.164Z,7.70
2022-12-19T09:39:19.229Z,8.55
2022-12-19T09:45:19.070Z,8.80
2022-12-19T09:56:46.210Z,8.20
2022-12-19T10:02:32.440Z,8.73
2022-12-19T10:08:08.453Z,9.05
2022-12-19T10:13:53.207Z,8.98
2022-12-19T10:19:21.193Z,9.65
2022-12-19T10:25:08.256Z,8.85
2022-12-19T10:30:38.203Z,8.77
2022-12-19T10:36:06.326Z,8.93
2022-12-19T10:41:36.757Z,9.10
2022-12-19T10:47:11.255Z,9.57
2022-12-19T10:53:03.200Z,9.20
2022-12-19T10:58:32.210Z,9.25
2022-12-19T11:04:04.213Z,8.88
2022-12-19T11:09:34.239Z,8.60
2022-12-19T11:20:23.295Z,8.70
2022-12-19T11:29:32.362Z,8.10
2022-12-19T11:29:37.220Z,8.65
2022-12-19T11:32:47.689Z,8.05
